Airfield :
LOGIN :

Register | Disclaimer

   EN    FR    IT 

 










Legend :    VFR   Marginal VFR   IFR   Intensive IFR   Very Intensive IFR
Visi :
Ceiling :
>= 8 km
>= 3000ft
5 to 8 km
1000 to 3000 ft
1500m to 5 km
500 to 1000 ft
800 to 1500m
200 to 500 ft
< 800m
< 200 ft
Symbols :   Thunderstorms  Fog  Heavy snow  Heavy precipitations  Wind > 20 kt
SIGMETs :     Misc.  Thunderstorms  Icing  Turbulence  Mountain Waves  Volcanic Ashes







- Airport Elevation : 32 ft
- IATA code : LKZ


EGUL - RAF Lakenheath

CURRENT METAR :
  • 161233Z 21013KT 9999 -DZ SCT010 BKN016 BKN020 09/07 A2955 RMK AO2A RAE1159RAB03E14DZB33 CIG 008V016 CIG 013 RWY06 SLP010 $

EXPIRED METARs :
  • 161209Z 21011KT 9999 -RA OVC008 09/07 A2957 RMK AO2A RAE1159RAB03 CIG 007 RWY06 SLP017 $
  • 161156Z AUTO 21012KT 9999 -RA OVC007 09/07 A2958 RMK AO2 RAB06E16DZB16E17RAB27E38DZB38E40RAB49 SLP020 P0000 60000 T00890073 10090 20086 57023 $
  • 161140Z AUTO 21012G21KT 9999 OVC007 09/07 A2959 RMK AO2 RAB06E16DZB16E17RAB27E38DZB38E40 SLP024 $
  • 161127Z AUTO 21014G20KT 9999 -RA OVC007 09/07 A2959 RMK AO2 RAB06E16DZB16E17RAB27 OVC V BKN SLP024 $
  • 161117Z AUTO 21015KT 9000 BR BKN007 OVC012 09/07 A2960 RMK AO2 RAB06E16DZB16E17 BKN V OVC SLP027 $
  • 161106Z AUTO 21013KT 9999 -RA OVC007 09/07 A2961 RMK AO2 RAB06 SLP030 $
  • 161056Z AUTO 21013G20KT 9999 OVC008 09/07 A2961 RMK AO2 DZB0956E05RAB11E30DZB32E41 SLP030 P0000 T00870070 $
  • 161041Z 21015KT 9999 OVC008 09/07 A2961 RMK AO2A DZB0956E05RAB11E30DZB32E41 SLP030 $
  • 161023Z 21015KT 9999 -RA BKN009 OVC016 09/07 A2962 RMK DZB0956E05RAB11 CIG 009V011 SLP034 $
  • 161005Z AUTO 21015G21KT 9999 BKN011 OVC018 09/07 A2962 RMK AO2 DZB0956E05 SLP034 $
  • 160957Z AUTO 21014G22KT 9999 -DZ BKN014 OVC020 09/06 A2963 RMK AO2 DZB56 CIG 013 RWY06 SLP037 $

TAF AMD TAF EGUL
Valid from the 16 at 12:00 until the 17 at 18:00 UTC


161206Z 1612/1718 22012G20KT 8000 -SHRA BKN007 OVC020 610502 QNH2952INS
TEMPO 1612/1615 22015G25KT BKN005
BECMG 1617/1618 25012G20KT 9999 NSW BKN020 QNH2949INS
BECMG 1703/1704 28012G20KT 9999 BKN020 QNH2956INS
BECMG 1706/1707 31015G25KT 8000 -SHRA BKN015 620302 QNH2965INS
BECMG 1709/1710 31012G20KT 9999 NSW SCT030 QNH2978INS
BECMG 1713/1714 32012G20KT 9999 BKN030 QNH2989INS TX11/1615Z TN00/1708Z
No reported NOTAMs for that airfield.



MET'MAP, your aeronautical weather chart ! - Copyright ORBIFLY December 2007 - Disclaimer

ORBIFLY MET'MAP TEAM :

Programming & Development : Alexandra Zaïnal
Concept & Development : Baudouin d'Aumeries
Co-Development & Prog : Marc-Olivier Méhu
Technical & hardware support : Manuel Goepfert

Contact : metmap@orbifly.com




SOURCES & CREDITS :

   NOAA